Time;durP1;ratioP1;P1;durP2;ratioP2;P2;SDS_P1;SDS_P2;PMS_P1;PMS_P2;Temp;Humidity;BMP_temperature;BMP_pressure;BME280_temperature;BME280_humidity;BME280_pressure;Samples;Min_cycle;Max_cycle;Signal;HPM_P1;HPM_P2
2023/05/12 00:00:26;;;;;;;8.10;6.00;;;;;;;15.35;50.72;101207.91;5977615;23;20381;-67
2023/05/12 00:02:55;;;;;;;6.40;5.80;;;;;;;15.36;50.58;101206.88;5969425;23;20885;-67
2023/05/12 00:05:25;;;;;;;7.17;4.83;;;;;;;15.30;50.74;101207.75;5975986;24;20410;-67
2023/05/12 00:07:54;;;;;;;7.57;6.30;;;;;;;15.09;51.22;101203.59;5966765;23;20465;-67
2023/05/12 00:10:23;;;;;;;6.50;4.93;;;;;;;15.22;50.89;101203.44;5985672;23;20420;-67
2023/05/12 00:12:54;;;;;;;6.37;5.33;;;;;;;15.03;51.24;101206.38;5974689;23;20480;-67
2023/05/12 00:15:23;;;;;;;6.10;5.50;;;;;;;14.91;51.66;101206.25;5976540;24;20892;-67
2023/05/12 00:17:52;;;;;;;9.80;5.10;;;;;;;14.89;51.62;101202.09;5975972;23;20461;-66
2023/05/12 00:20:22;;;;;;;7.83;6.33;;;;;;;14.87;51.75;101205.03;5976647;23;20382;-66
2023/05/12 00:22:51;;;;;;;7.73;5.87;;;;;;;14.88;51.70;101203.97;5977974;24;20385;-66
2023/05/12 00:25:20;;;;;;;6.53;5.43;;;;;;;14.87;51.54;101202.31;5980146;24;20672;-67
2023/05/12 00:27:49;;;;;;;6.13;5.40;;;;;;;14.71;52.00;101209.16;5977225;24;20773;-67
2023/05/12 00:30:19;;;;;;;8.13;6.10;;;;;;;14.71;52.13;101211.06;6017445;23;20393;-68
2023/05/12 00:32:49;;;;;;;10.40;6.80;;;;;;;14.70;51.90;101210.22;5975666;23;20426;-68
2023/05/12 00:35:18;;;;;;;6.40;5.80;;;;;;;14.71;51.93;101211.06;5979107;23;20458;-68
2023/05/12 00:37:48;;;;;;;7.17;5.40;;;;;;;14.73;51.69;101206.19;5991157;23;20981;-67
2023/05/12 00:40:17;;;;;;;6.40;5.73;;;;;;;14.68;51.90;101204.13;5975988;24;20436;-67
2023/05/12 00:42:46;;;;;;;5.97;5.37;;;;;;;14.58;52.13;101206.53;5977898;24;20407;-67
2023/05/12 00:45:15;;;;;;;6.73;5.70;;;;;;;14.55;52.30;101212.41;5984505;23;20453;-67
2023/05/12 00:47:46;;;;;;;7.63;6.10;;;;;;;14.45;52.48;101211.22;5977300;23;20382;-67
2023/05/12 00:50:15;;;;;;;8.43;5.70;;;;;;;14.45;52.71;101211.22;5979117;23;20535;-67
2023/05/12 00:52:46;;;;;;;9.60;6.10;;;;;;;14.31;52.84;101216.75;5976471;24;20382;-67
2023/05/12 00:55:15;;;;;;;8.30;6.30;;;;;;;14.28;52.92;101217.16;5977821;23;20451;-67
2023/05/12 00:57:45;;;;;;;8.50;6.30;;;;;;;14.30;52.96;101216.94;5976406;24;20669;-68
2023/05/12 01:00:17;;;;;;;10.40;5.50;;;;;;;14.30;52.85;101214.22;5976255;24;20408;-68
2023/05/12 01:02:50;;;;;;;6.87;6.17;;;;;;;14.19;53.09;101213.03;5974415;24;20831;-69
2023/05/12 01:05:19;;;;;;;6.57;5.77;;;;;;;14.14;53.59;101218.28;5975859;24;20822;-67
2023/05/12 01:07:49;;;;;;;8.00;6.03;;;;;;;14.19;53.20;101207.59;5975372;23;20445;-68
2023/05/12 01:10:20;;;;;;;6.37;5.03;;;;;;;14.15;53.41;101209.06;5977712;23;20389;-67
2023/05/12 01:12:50;;;;;;;7.13;5.83;;;;;;;14.13;53.52;101211.19;5974975;23;20413;-67
2023/05/12 01:15:20;;;;;;;12.37;6.23;;;;;;;14.12;53.47;101217.69;5976904;23;20516;-67
2023/05/12 01:17:56;;;;;;;6.87;6.17;;;;;;;14.15;53.53;101208.25;5977005;23;20400;-68
2023/05/12 01:20:28;;;;;;;8.63;5.80;;;;;;;14.10;53.31;101214.34;6019004;23;20437;-67
2023/05/12 01:22:59;;;;;;;6.73;5.97;;;;;;;14.06;53.30;101224.00;5977186;23;20375;-68
2023/05/12 01:25:32;;;;;;;9.03;5.50;;;;;;;14.10;53.27;101224.38;5974510;24;20850;-67
2023/05/12 01:28:06;;;;;;;5.83;5.30;;;;;;;14.09;53.50;101222.72;5973330;23;20409;-67
2023/05/12 01:30:40;;;;;;;7.10;5.57;;;;;;;14.01;53.68;101226.53;5988078;23;20444;-67
2023/05/12 01:33:11;;;;;;;7.60;6.50;;;;;;;14.00;53.92;101224.84;5994397;23;20466;-67
2023/05/12 01:35:41;;;;;;;6.97;5.93;;;;;;;13.98;54.04;101226.13;5980036;23;20424;-66
2023/05/12 01:38:11;;;;;;;8.70;7.07;;;;;;;13.91;54.06;101226.16;5976019;24;20485;-67
2023/05/12 01:40:41;;;;;;;9.30;7.97;;;;;;;13.93;54.19;101230.34;5973089;23;20423;-67
2023/05/12 01:43:12;;;;;;;6.83;6.13;;;;;;;13.89;54.20;101228.28;5975486;24;20415;-67
2023/05/12 01:45:41;;;;;;;8.20;6.40;;;;;;;13.87;54.14;101227.66;5972267;23;20420;-67
2023/05/12 01:48:10;;;;;;;5.97;5.10;;;;;;;13.90;54.36;101228.03;5968466;23;20405;-67
2023/05/12 01:50:41;;;;;;;8.87;5.60;;;;;;;13.83;54.62;101229.13;5967076;23;20956;-66
2023/05/12 01:53:14;;;;;;;8.67;7.73;;;;;;;13.80;54.44;101234.97;5975780;23;20468;-67
2023/05/12 01:55:43;;;;;;;7.47;6.63;;;;;;;13.75;54.73;101232.06;5976662;23;20446;-67
2023/05/12 01:58:14;;;;;;;8.47;6.20;;;;;;;13.72;54.79;101227.06;6024319;23;20441;-67
2023/05/12 02:00:43;;;;;;;8.43;6.10;;;;;;;13.68;55.02;101232.13;5971546;23;20396;-67
2023/05/12 02:03:16;;;;;;;8.57;6.37;;;;;;;13.62;55.13;101224.81;5971365;23;20400;-67
2023/05/12 02:05:45;;;;;;;9.07;6.50;;;;;;;13.50;55.55;101234.69;5978432;23;20424;-67
2023/05/12 02:08:14;;;;;;;8.53;6.80;;;;;;;13.34;56.09;101230.53;5979023;23;20872;-67
2023/05/12 02:10:43;;;;;;;6.83;6.00;;;;;;;13.34;56.16;101238.69;5977781;23;20878;-65
2023/05/12 02:13:14;;;;;;;12.33;7.37;;;;;;;13.26;56.51;101236.19;5968121;23;20454;-67
2023/05/12 02:15:43;;;;;;;11.70;7.10;;;;;;;13.26;56.51;101244.34;5997975;23;20432;-67
2023/05/12 02:18:12;;;;;;;8.27;5.90;;;;;;;13.20;56.74;101250.63;5971035;23;20496;-67
2023/05/12 02:20:41;;;;;;;7.67;6.23;;;;;;;13.19;56.72;101243.50;5978386;23;20403;-67
2023/05/12 02:23:10;;;;;;;7.70;6.37;;;;;;;13.05;57.42;101245.38;5975952;24;20404;-67
2023/05/12 02:25:39;;;;;;;7.27;5.97;;;;;;;13.01;57.20;101248.72;5970699;23;20413;-67
2023/05/12 02:28:10;;;;;;;8.87;6.37;;;;;;;13.00;57.70;101249.75;5977887;23;20966;-67
2023/05/12 02:30:47;;;;;;;11.13;6.67;;;;;;;12.96;57.58;101253.94;5976504;24;20436;-66
2023/05/12 02:33:17;;;;;;;7.37;5.57;;;;;;;12.83;58.08;101256.66;5976229;24;20540;-66
2023/05/12 02:35:46;;;;;;;9.50;5.80;;;;;;;12.79;58.37;101256.22;5966514;23;20481;-67
2023/05/12 02:38:15;;;;;;;8.20;6.47;;;;;;;12.81;58.56;101256.88;5978907;23;20977;-68
2023/05/12 02:40:46;;;;;;;7.93;7.10;;;;;;;12.82;58.34;101252.28;5978350;23;20429;-68
2023/05/12 02:43:16;;;;;;;7.40;6.40;;;;;;;12.67;58.84;101255.19;5974051;23;20405;-67
2023/05/12 02:45:47;;;;;;;7.03;5.53;;;;;;;12.70;58.67;101260.19;5975169;23;20425;-67
2023/05/12 02:48:16;;;;;;;6.80;5.93;;;;;;;12.65;58.78;101254.53;5974245;23;20402;-67
2023/05/12 02:50:45;;;;;;;7.10;6.30;;;;;;;12.61;59.11;101251.41;5976660;24;20440;-67
2023/05/12 02:53:14;;;;;;;9.03;6.17;;;;;;;12.53;59.42;101259.75;5977660;23;20428;-68
2023/05/12 02:55:43;;;;;;;7.17;6.43;;;;;;;12.45;59.44;101251.78;5977310;23;20440;-65
2023/05/12 02:58:12;;;;;;;12.50;7.40;;;;;;;12.45;59.79;101250.94;5976808;24;20436;-66
2023/05/12 03:00:41;;;;;;;12.90;6.77;;;;;;;12.46;59.63;101256.19;5978701;23;20793;-66
2023/05/12 03:03:11;;;;;;;6.53;5.73;;;;;;;12.33;59.93;101239.88;5999118;23;20933;-67
2023/05/12 03:05:41;;;;;;;7.53;5.93;;;;;;;12.24;60.34;101246.53;5965501;23;20465;-67
2023/05/12 03:08:10;;;;;;;6.97;5.83;;;;;;;12.24;60.41;101251.97;5976400;23;20457;-67
2023/05/12 03:10:39;;;;;;;6.67;6.07;;;;;;;12.15;60.84;101245.06;5977668;23;20502;-67
2023/05/12 03:13:08;;;;;;;10.33;6.33;;;;;;;12.15;60.77;101245.88;5973752;23;20432;-67
2023/05/12 03:15:37;;;;;;;8.33;6.97;;;;;;;12.09;61.11;101251.28;5974556;24;20431;-66
2023/05/12 03:18:06;;;;;;;6.50;5.67;;;;;;;12.04;61.45;101249.19;5975736;23;20437;-67
2023/05/12 03:20:37;;;;;;;7.87;6.13;;;;;;;12.02;61.35;101255.84;5979155;23;20471;-68
2023/05/12 03:23:06;;;;;;;7.53;5.60;;;;;;;12.04;61.47;101261.91;5977163;23;20427;-67
2023/05/12 03:25:35;;;;;;;13.40;6.90;;;;;;;12.02;61.39;101261.25;5977577;23;20437;-68
2023/05/12 03:28:05;;;;;;;10.80;5.83;;;;;;;12.02;61.34;101258.56;5972981;23;20430;-68
2023/05/12 03:30:34;;;;;;;7.20;5.80;;;;;;;11.98;61.74;101260.00;5997877;23;20509;-67
2023/05/12 03:33:03;;;;;;;8.20;6.20;;;;;;;11.92;61.89;101266.22;5971469;24;20426;-67
2023/05/12 03:35:32;;;;;;;8.87;7.97;;;;;;;12.00;61.65;101263.34;5975916;23;20480;-67
2023/05/12 03:38:04;;;;;;;8.43;6.87;;;;;;;12.09;61.39;101262.97;5975565;23;20443;-68
2023/05/12 03:40:33;;;;;;;9.43;6.80;;;;;;;12.11;61.05;101260.88;5987357;23;20388;-66
2023/05/12 03:43:03;;;;;;;8.33;7.40;;;;;;;12.12;61.22;101267.16;5972407;24;20759;-67
2023/05/12 03:45:32;;;;;;;7.23;6.63;;;;;;;12.54;59.88;101266.00;5971562;23;20441;-67
2023/05/12 03:48:01;;;;;;;8.23;6.83;;;;;;;13.15;57.84;101264.00;5977421;24;20423;-69
2023/05/12 03:50:30;;;;;;;7.23;6.47;;;;;;;13.69;56.30;101268.31;5975788;24;20449;-68
2023/05/12 03:53:01;;;;;;;13.47;6.63;;;;;;;14.12;54.87;101266.69;5975738;24;20456;-69
2023/05/12 03:55:31;;;;;;;11.00;7.13;;;;;;;14.28;53.94;101274.31;5977584;24;20429;-67
2023/05/12 03:58:00;;;;;;;10.43;7.63;;;;;;;14.30;53.86;101272.22;5974046;24;20903;-68
2023/05/12 04:00:29;;;;;;;6.73;6.10;;;;;;;14.47;53.25;101266.31;5975719;24;20808;-66
2023/05/12 04:02:58;;;;;;;8.77;6.40;;;;;;;14.80;52.50;101275.09;5973601;24;20412;-67
2023/05/12 04:05:27;;;;;;;13.57;6.87;;;;;;;14.91;52.10;101273.56;5979052;23;20436;-66
2023/05/12 04:07:56;;;;;;;11.70;7.00;;;;;;;14.63;52.50;101268.50;5978454;24;20859;-67
2023/05/12 04:10:25;;;;;;;8.43;6.57;;;;;;;14.08;54.22;101276.34;5977044;23;20411;-67
2023/05/12 04:12:56;;;;;;;6.93;6.20;;;;;;;13.65;55.15;101281.47;5972703;23;20435;-67
2023/05/12 04:15:26;;;;;;;9.30;7.33;;;;;;;13.19;56.75;101276.13;5989969;23;20821;-67
2023/05/12 04:17:55;;;;;;;17.20;6.43;;;;;;;13.25;57.02;101279.88;5976955;24;20486;-66
2023/05/12 04:20:24;;;;;;;7.00;6.27;;;;;;;14.57;53.83;101283.03;5979302;23;20771;-66
2023/05/12 04:22:53;;;;;;;7.70;6.03;;;;;;;15.25;51.60;101277.69;6016430;23;20393;-67
2023/05/12 04:25:22;;;;;;;7.93;6.60;;;;;;;16.05;49.54;101284.81;5977145;23;20424;-67
2023/05/12 04:27:51;;;;;;;7.33;6.63;;;;;;;16.76;47.64;101282.19;5977543;23;20894;-67
2023/05/12 04:30:21;;;;;;;12.80;6.47;;;;;;;16.98;46.40;101284.38;5977572;24;20428;-68
2023/05/12 04:32:51;;;;;;;7.83;6.30;;;;;;;17.78;45.10;101288.22;5998266;23;20956;-68
2023/05/12 04:35:20;;;;;;;10.33;7.57;;;;;;;17.93;44.17;101280.34;5978152;23;20500;-67
2023/05/12 04:37:49;;;;;;;8.27;7.53;;;;;;;18.36;43.39;101285.34;5979030;24;20407;-66
2023/05/12 04:40:18;;;;;;;7.57;5.90;;;;;;;18.61;42.04;101285.03;5976966;23;20402;-66
2023/05/12 04:42:47;;;;;;;10.33;6.23;;;;;;;18.41;43.21;101290.09;6016912;23;20763;-66
2023/05/12 04:45:17;;;;;;;9.93;7.00;;;;;;;18.75;42.30;101296.53;5977041;24;20426;-67
2023/05/12 04:47:48;;;;;;;9.03;7.63;;;;;;;18.88;41.73;101290.75;6001927;23;20433;-66
2023/05/12 04:50:27;;;;;;;14.10;8.67;;;;;;;18.16;42.99;101299.47;5980223;23;20463;-68
2023/05/12 04:53:00;;;;;;;8.80;7.13;;;;;;;16.67;45.81;101299.97;4937744;29;20819;-70
2023/05/12 04:55:29;;;;;;;17.60;7.00;;;;;;;15.73;48.67;101300.53;4985712;28;20439;-72
2023/05/12 04:57:59;;;;;;;8.33;7.10;;;;;;;15.11;50.25;101305.03;4957262;28;20407;-70
2023/05/12 05:00:30;;;;;;;13.13;7.40;;;;;;;14.50;51.93;101306.72;4956540;28;20950;-70
2023/05/12 05:03:00;;;;;;;13.87;8.40;;;;;;;15.03;51.47;101308.03;4971793;28;20448;-72
2023/05/12 05:05:29;;;;;;;13.97;7.30;;;;;;;15.81;49.28;101311.13;4978226;28;20983;-72
2023/05/12 05:07:59;;;;;;;13.47;8.70;;;;;;;15.09;50.69;101309.91;4969986;28;20415;-71
2023/05/12 05:10:29;;;;;;;13.23;7.70;;;;;;;14.52;52.16;101319.09;4958469;28;21077;-70
2023/05/12 05:12:58;;;;;;;13.43;6.80;;;;;;;14.40;52.93;101323.53;4972120;28;20782;-71
2023/05/12 05:15:27;;;;;;;8.50;7.00;;;;;;;14.29;53.72;101321.44;4954079;28;20501;-71
2023/05/12 05:17:56;;;;;;;7.77;6.97;;;;;;;14.33;53.40;101319.97;4955627;28;20519;-72
2023/05/12 05:20:31;;;;;;;11.17;7.97;;;;;;;14.51;52.83;101327.47;4986387;28;20440;-72
2023/05/12 05:23:01;;;;;;;8.70;6.90;;;;;;;14.56;52.97;101328.47;4957211;28;20483;-72
2023/05/12 05:25:30;;;;;;;8.10;6.70;;;;;;;14.70;52.75;101329.25;4953972;28;20449;-69
2023/05/12 05:27:59;;;;;;;9.10;7.10;;;;;;;14.79;52.58;101327.91;4954154;28;20829;-71
2023/05/12 05:30:28;;;;;;;9.27;6.90;;;;;;;15.08;51.88;101330.03;4953394;28;20466;-70
2023/05/12 05:32:58;;;;;;;15.70;7.40;;;;;;;15.13;51.50;101329.34;4954627;28;20807;-73
2023/05/12 05:35:27;;;;;;;8.27;7.40;;;;;;;15.23;51.30;101330.53;4967690;28;20438;-71
2023/05/12 05:37:58;;;;;;;8.90;8.00;;;;;;;15.21;51.66;101327.19;4982224;28;20427;-69
2023/05/12 05:40:27;;;;;;;7.93;7.13;;;;;;;15.38;51.14;101326.63;4985520;28;20430;-71
2023/05/12 05:43:06;;;;;;;8.37;6.80;;;;;;;15.58;50.79;101336.34;4952027;28;20795;-70
2023/05/12 05:45:36;;;;;;;7.93;7.13;;;;;;;15.41;50.93;101331.63;4948548;28;20480;-72
2023/05/12 05:48:06;;;;;;;8.47;7.13;;;;;;;15.32;50.94;101338.44;4971038;28;20464;-70
2023/05/12 05:50:35;;;;;;;8.00;6.37;;;;;;;15.34;50.78;101337.16;4955301;28;20410;-71
2023/05/12 05:53:06;;;;;;;10.50;7.33;;;;;;;15.48;51.14;101337.88;4955373;28;20437;-72
2023/05/12 05:55:37;;;;;;;8.87;6.00;;;;;;;15.59;50.62;101339.88;4955378;28;20962;-73
2023/05/12 05:58:07;;;;;;;7.67;6.40;;;;;;;15.66;50.43;101337.94;4970900;28;20459;-71
2023/05/12 06:00:36;;;;;;;6.83;6.13;;;;;;;15.76;50.53;101335.53;4968770;28;20535;-73
2023/05/12 06:03:05;;;;;;;11.23;6.17;;;;;;;15.81;50.40;101341.16;4966891;28;20816;-72
2023/05/12 06:05:38;;;;;;;10.40;6.27;;;;;;;15.85;50.41;101345.09;4954605;28;20530;-72
2023/05/12 06:08:11;;;;;;;9.10;6.47;;;;;;;15.98;50.00;101342.22;4955388;28;20535;-72
2023/05/12 06:10:42;;;;;;;11.97;7.27;;;;;;;16.21;49.56;101343.44;4969380;28;20460;-73
2023/05/12 06:13:11;;;;;;;9.73;6.57;;;;;;;16.39;48.89;101343.41;4952877;29;20432;-72
2023/05/12 06:15:40;;;;;;;8.40;6.53;;;;;;;16.37;48.52;101348.28;4952900;29;20844;-71
2023/05/12 06:18:09;;;;;;;9.03;6.63;;;;;;;16.44;48.49;101351.75;4965703;28;20416;-70
2023/05/12 06:20:38;;;;;;;10.07;6.37;;;;;;;16.62;48.39;101346.28;4954372;29;20864;-70
2023/05/12 06:23:10;;;;;;;7.20;6.13;;;;;;;16.72;48.13;101348.47;4955235;28;20415;-73
2023/05/12 06:25:40;;;;;;;10.87;7.53;;;;;;;16.84;48.05;101347.47;4955234;28;20460;-71
2023/05/12 06:28:09;;;;;;;7.63;6.80;;;;;;;16.91;48.28;101356.38;4963834;28;20523;-71
2023/05/12 06:30:39;;;;;;;8.90;7.20;;;;;;;16.95;47.91;101363.06;4947151;28;20412;-70
2023/05/12 06:33:08;;;;;;;7.03;6.43;;;;;;;16.86;47.83;101352.69;4957512;28;20450;-72
2023/05/12 06:35:38;;;;;;;9.03;6.80;;;;;;;16.83;48.23;101364.94;4954554;28;20480;-71
2023/05/12 06:38:07;;;;;;;8.47;7.13;;;;;;;17.07;47.77;101367.72;4966006;28;20428;-70
2023/05/12 06:40:38;;;;;;;8.97;6.30;;;;;;;17.15;47.64;101368.22;4958418;28;20424;-71
2023/05/12 06:43:08;;;;;;;8.67;6.83;;;;;;;17.19;47.45;101372.16;4966709;28;20977;-71
2023/05/12 06:45:37;;;;;;;10.10;6.90;;;;;;;17.35;47.73;101362.44;4954435;28;20454;-71
2023/05/12 06:48:10;;;;;;;9.93;6.40;;;;;;;17.67;47.32;101372.00;4967632;28;20956;-73
2023/05/12 06:50:41;;;;;;;8.90;6.77;;;;;;;17.82;46.73;101363.31;4960545;28;20445;-71
2023/05/12 06:53:10;;;;;;;10.70;6.40;;;;;;;17.84;46.18;101363.94;4959853;28;20437;-72
2023/05/12 06:55:42;;;;;;;7.20;6.50;;;;;;;17.76;45.94;101370.63;4953677;28;20477;-69
2023/05/12 06:58:12;;;;;;;9.17;6.23;;;;;;;17.68;46.34;101365.47;4950597;28;20533;-70
2023/05/12 07:00:41;;;;;;;8.17;5.93;;;;;;;17.70;46.42;101360.63;4958766;28;20787;-69
2023/05/12 07:03:10;;;;;;;18.93;6.63;;;;;;;17.83;46.30;101369.63;4953215;29;20961;-70
2023/05/12 07:05:40;;;;;;;7.17;6.13;;;;;;;17.87;46.01;101355.22;4952653;28;20477;-71
2023/05/12 07:08:09;;;;;;;8.60;5.70;;;;;;;17.93;45.85;101367.13;4956199;28;20430;-72
2023/05/12 07:10:40;;;;;;;5.20;4.70;;;;;;;18.11;44.96;101370.56;4950579;28;20426;-71
2023/05/12 07:13:09;;;;;;;6.50;5.30;;;;;;;17.91;45.51;101361.88;4954034;28;20414;-72
2023/05/12 07:15:40;;;;;;;8.00;6.30;;;;;;;17.90;45.54;101370.38;4957546;28;20534;-72
2023/05/12 07:18:09;;;;;;;12.10;8.83;;;;;;;17.98;45.34;101367.25;4948162;28;20977;-73
2023/05/12 07:20:39;;;;;;;7.07;5.90;;;;;;;18.03;44.95;101370.94;4953937;28;20484;-71
2023/05/12 07:23:08;;;;;;;6.10;5.30;;;;;;;18.11;44.97;101367.81;4951843;28;20527;-71
2023/05/12 07:25:38;;;;;;;7.10;6.40;;;;;;;18.23;44.16;101370.56;4952084;28;20451;-72
2023/05/12 07:28:08;;;;;;;6.70;5.73;;;;;;;18.30;43.71;101376.72;4950551;28;20435;-71
2023/05/12 07:30:38;;;;;;;12.80;7.53;;;;;;;18.45;43.46;101377.03;4953534;28;20476;-71
2023/05/12 07:33:07;;;;;;;7.93;5.67;;;;;;;18.54;43.62;101378.34;4963039;28;20425;-71
2023/05/12 07:35:36;;;;;;;7.83;6.00;;;;;;;18.75;43.14;101376.03;4959237;28;20477;-70
2023/05/12 07:38:08;;;;;;;7.90;6.43;;;;;;;18.63;43.14;101365.97;4961375;28;20528;-72
2023/05/12 07:40:37;;;;;;;7.13;6.43;;;;;;;18.71;43.07;101380.34;4957667;28;20460;-72
2023/05/12 07:43:07;;;;;;;8.57;7.00;;;;;;;18.84;43.22;101367.16;4958656;29;20514;-72
2023/05/12 07:45:37;;;;;;;7.63;5.83;;;;;;;19.10;41.55;101371.22;4958910;28;20455;-70
2023/05/12 07:48:06;;;;;;;6.80;5.50;;;;;;;19.17;42.72;101377.38;4959090;28;20907;-71
2023/05/12 07:50:35;;;;;;;7.43;6.00;;;;;;;19.10;42.66;101376.72;4960541;28;20445;-72
2023/05/12 07:53:04;;;;;;;8.33;5.50;;;;;;;18.95;42.53;101370.94;4962900;28;20477;-71
2023/05/12 07:55:34;;;;;;;9.63;6.10;;;;;;;19.09;42.67;101377.78;4961177;28;20829;-73
2023/05/12 07:58:03;;;;;;;6.30;5.70;;;;;;;19.23;42.00;101381.88;4957638;28;20529;-70
2023/05/12 08:00:34;;;;;;;7.10;5.80;;;;;;;19.60;41.62;101373.22;4958809;28;20836;-72
2023/05/12 08:03:04;;;;;;;10.03;7.43;;;;;;;19.62;42.00;101380.09;4958982;28;20440;-69
2023/05/12 08:05:33;;;;;;;7.13;5.97;;;;;;;19.51;42.15;101368.09;4958959;28;20455;-71
2023/05/12 08:08:03;;;;;;;7.27;5.90;;;;;;;19.69;41.64;101379.94;4959068;28;20503;-73
2023/05/12 08:10:32;;;;;;;7.80;7.00;;;;;;;19.85;40.82;101379.91;4957747;28;20904;-72
2023/05/12 08:13:01;;;;;;;6.77;5.03;;;;;;;19.84;39.95;101377.44;4953626;28;20432;-72
2023/05/12 08:15:33;;;;;;;5.37;4.87;;;;;;;19.94;38.50;101377.59;4960339;28;20516;-70
2023/05/12 08:18:02;;;;;;;5.50;4.97;;;;;;;20.00;38.66;101371.06;4962040;28;20424;-71
2023/05/12 08:20:32;;;;;;;7.13;5.43;;;;;;;20.22;39.14;101382.09;4963232;28;20444;-70
2023/05/12 08:23:01;;;;;;;7.13;6.40;;;;;;;20.05;38.43;101376.63;4960011;28;20439;-73
2023/05/12 08:25:30;;;;;;;7.80;5.00;;;;;;;20.09;37.82;101374.22;4960823;28;20481;-70
2023/05/12 08:27:59;;;;;;;6.10;4.83;;;;;;;20.15;37.50;101368.53;4965521;28;20939;-72
2023/05/12 08:30:28;;;;;;;8.80;4.83;;;;;;;20.25;37.28;101363.16;4988404;28;20520;-72
2023/05/12 08:32:59;;;;;;;7.53;6.20;;;;;;;20.43;37.05;101372.22;4957803;28;20436;-71
2023/05/12 08:35:29;;;;;;;12.43;5.93;;;;;;;20.74;36.55;101371.50;4959578;28;20481;-72
2023/05/12 08:38:00;;;;;;;5.77;5.20;;;;;;;20.61;35.38;101372.72;4960312;28;20450;-73
2023/05/12 08:40:33;;;;;;;8.67;5.13;;;;;;;20.44;35.93;101371.94;4958667;28;20437;-71
2023/05/12 08:43:10;;;;;;;8.33;5.50;;;;;;;20.45;35.50;101375.53;4952617;28;20440;-71
2023/05/12 08:45:40;;;;;;;9.40;5.70;;;;;;;20.57;35.49;101381.75;4954454;28;20468;-72
2023/05/12 08:48:12;;;;;;;7.67;4.47;;;;;;;20.66;35.19;101355.47;4950159;28;20433;-72
2023/05/12 08:50:42;;;;;;;10.13;5.07;;;;;;;20.66;35.43;101375.53;4958913;28;20446;-72
2023/05/12 08:53:13;;;;;;;6.10;4.70;;;;;;;20.74;34.25;101379.75;4982789;28;21084;-70
2023/05/12 08:55:44;;;;;;;8.17;4.43;;;;;;;20.89;34.06;101374.41;4950342;28;21044;-72
2023/05/12 08:58:34;;;;;;;6.53;4.23;;;;;;;21.17;33.08;101376.94;4953144;28;20444;-72
2023/05/12 09:01:11;;;;;;;9.80;4.90;;;;;;;21.22;33.61;101376.97;4950710;28;20436;-72
2023/05/12 09:03:42;;;;;;;4.90;4.50;;;;;;;21.44;33.12;101365.06;4969442;28;20422;-71
2023/05/12 09:06:11;;;;;;;5.67;4.90;;;;;;;21.33;32.73;101369.66;4954825;28;20547;-72
2023/05/12 09:08:41;;;;;;;6.10;5.50;;;;;;;21.14;32.86;101366.44;4954066;28;20438;-72
2023/05/12 09:11:12;;;;;;;4.83;4.00;;;;;;;20.94;33.98;101374.47;4955192;28;20445;-72
2023/05/12 09:13:52;;;;;;;4.43;3.77;;;;;;;21.08;33.66;101367.44;4951869;28;20443;-72
2023/05/12 09:16:24;;;;;;;6.37;4.40;;;;;;;21.31;32.76;101382.81;4953387;28;20472;-70
2023/05/12 09:18:57;;;;;;;4.93;4.40;;;;;;;21.19;31.79;101362.91;4955043;28;20469;-71
2023/05/12 09:21:27;;;;;;;4.80;4.10;;;;;;;21.08;32.57;101372.13;4955532;28;20438;-72
2023/05/12 09:24:04;;;;;;;6.40;4.47;;;;;;;21.11;32.10;101361.41;4954112;28;20825;-72
2023/05/12 09:26:45;;;;;;;8.70;4.37;;;;;;;21.06;30.68;101369.63;4955178;28;20444;-71
2023/05/12 09:29:16;;;;;;;4.83;3.63;;;;;;;21.23;31.42;101369.56;4955037;28;20445;-74
2023/05/12 09:32:00;;;;;;;14.80;5.30;;;;;;;21.40;31.79;101353.72;4954615;28;20810;-71
2023/05/12 09:34:34;;;;;;;6.37;4.50;;;;;;;21.36;30.83;101362.78;4954418;28;20427;-72
2023/05/12 09:37:06;;;;;;;5.30;4.10;;;;;;;21.27;30.60;101359.66;4953681;28;20534;-72
2023/05/12 09:39:36;;;;;;;4.77;4.37;;;;;;;21.40;30.75;101350.13;4948065;28;20412;-70
2023/05/12 09:42:12;;;;;;;10.80;5.77;;;;;;;21.52;31.15;101342.53;4954415;28;20426;-71
2023/05/12 09:44:41;;;;;;;6.23;4.80;;;;;;;21.54;30.97;101359.63;4954350;28;20519;-69
2023/05/12 09:47:11;;;;;;;5.10;4.03;;;;;;;21.32;30.21;101356.13;4954389;28;20435;-70
2023/05/12 09:49:51;;;;;;;5.00;4.50;;;;;;;21.07;30.65;101365.78;4954216;28;20923;-71
2023/05/12 09:52:21;;;;;;;5.67;5.20;;;;;;;21.06;31.75;101364.13;4950162;28;20424;-70
2023/05/12 09:54:52;;;;;;;6.30;4.50;;;;;;;21.07;32.29;101354.78;4953642;28;20980;-71
2023/05/12 09:57:24;;;;;;;4.73;4.33;;;;;;;21.42;31.84;101350.72;4954874;28;20449;-71
2023/05/12 09:59:54;;;;;;;3.60;3.30;;;;;;;21.48;30.59;101361.53;4950757;28;20435;-69
2023/05/12 10:02:24;;;;;;;5.13;4.60;;;;;;;21.59;30.82;101363.25;4950467;28;20927;-70
2023/05/12 10:05:01;;;;;;;5.07;4.30;;;;;;;21.64;29.44;101357.75;4947757;28;20422;-70
2023/05/12 10:07:31;;;;;;;4.67;4.27;;;;;;;21.47;29.92;101359.84;4951784;28;20515;-72
2023/05/12 10:10:06;;;;;;;5.37;3.10;;;;;;;21.67;29.81;101357.25;4953775;29;20523;-71
2023/05/12 10:12:36;;;;;;;5.00;3.87;;;;;;;21.59;30.08;101357.72;4976204;28;20496;-72
2023/05/12 10:15:07;;;;;;;6.97;3.97;;;;;;;21.50;30.67;101341.97;4952505;28;20429;-70
2023/05/12 10:17:37;;;;;;;7.20;3.80;;;;;;;21.50;30.64;101353.81;4953704;28;20866;-72
2023/05/12 10:20:09;;;;;;;4.40;3.83;;;;;;;21.43;30.27;101357.88;4951877;28;20441;-72
2023/05/12 10:22:40;;;;;;;6.93;4.57;;;;;;;21.45;30.06;101344.66;4952617;28;20818;-73
2023/05/12 10:25:10;;;;;;;5.37;4.30;;;;;;;21.59;29.95;101351.41;4952202;28;20469;-70
2023/05/12 10:27:40;;;;;;;8.07;4.47;;;;;;;21.80;30.08;101347.69;4953356;28;20464;-70
2023/05/12 10:30:11;;;;;;;7.73;5.20;;;;;;;22.16;29.53;101357.03;4947680;28;20445;-72
2023/05/12 10:32:41;;;;;;;4.80;4.30;;;;;;;22.25;29.68;101354.59;4953509;28;20937;-72
2023/05/12 10:35:14;;;;;;;4.43;4.03;;;;;;;22.05;29.63;101344.28;4954644;28;20462;-76
2023/05/12 10:37:44;;;;;;;5.83;4.87;;;;;;;21.84;29.93;101346.06;4952215;28;20471;-71
2023/05/12 10:40:24;;;;;;;5.27;4.00;;;;;;;21.91;29.93;101348.59;4950785;28;20914;-72
2023/05/12 10:42:57;;;;;;;6.23;4.50;;;;;;;21.86;29.66;101338.38;4953066;28;20482;-70
2023/05/12 10:45:27;;;;;;;7.80;4.90;;;;;;;21.81;29.91;101337.50;4951516;28;21007;-71
2023/05/12 10:48:07;;;;;;;5.03;4.53;;;;;;;21.75;29.84;101330.28;4947669;28;20898;-72
2023/05/12 10:50:38;;;;;;;10.53;5.10;;;;;;;21.74;30.24;101351.50;4967253;23;20458;-66
2023/05/12 10:53:11;;;;;;;11.00;4.20;;;;;;;21.68;30.09;101333.31;4950829;28;20452;-67
2023/05/12 10:55:46;;;;;;;7.50;4.27;;;;;;;21.98;30.05;101339.00;4960072;28;20518;-67
2023/05/12 10:58:16;;;;;;;7.43;4.10;;;;;;;21.98;29.79;101343.69;4953500;28;20972;-68
2023/05/12 11:00:49;;;;;;;5.40;4.90;;;;;;;22.02;30.14;101334.66;4957427;28;20914;-67
2023/05/12 11:03:24;;;;;;;5.23;4.60;;;;;;;21.76;29.90;101324.53;4946779;28;20405;-68
2023/05/12 11:06:01;;;;;;;5.33;4.20;;;;;;;22.10;30.29;101336.88;4956737;28;20489;-68
2023/05/12 11:08:33;;;;;;;5.37;4.03;;;;;;;22.18;30.30;101330.00;4954609;28;20949;-68
2023/05/12 11:11:04;;;;;;;5.00;4.00;;;;;;;22.10;29.62;101327.78;4954875;28;20468;-67
2023/05/12 11:13:35;;;;;;;6.90;3.30;;;;;;;22.07;29.95;101331.88;4952603;28;20451;-67
2023/05/12 11:16:05;;;;;;;5.70;5.20;;;;;;;22.20;29.61;101336.09;4952375;28;20438;-67
2023/05/12 11:18:34;;;;;;;5.63;4.77;;;;;;;22.19;30.36;101328.09;4952913;28;20952;-67
2023/05/12 11:21:11;;;;;;;4.80;4.13;;;;;;;22.24;30.26;101337.22;4953000;29;20419;-68
2023/05/12 11:23:41;;;;;;;4.67;4.20;;;;;;;22.10;30.16;101323.09;4951646;28;20503;-68
2023/05/12 11:26:18;;;;;;;5.50;4.93;;;;;;;22.27;30.27;101314.63;4946889;28;20941;-67
2023/05/12 11:28:47;;;;;;;5.17;4.33;;;;;;;22.21;30.02;101320.41;4954766;28;20482;-66
2023/05/12 11:31:19;;;;;;;5.20;4.50;;;;;;;22.08;30.22;101330.78;4953855;28;20844;-67
2023/05/12 11:33:49;;;;;;;5.50;3.73;;;;;;;21.71;30.74;101332.75;4959960;28;20471;-67
2023/05/12 11:36:38;;;;;;;6.47;4.40;;;;;;;21.46;31.22;101338.91;4952833;28;20470;-67
2023/05/12 11:39:13;;;;;;;4.77;4.27;;;;;;;21.85;30.08;101327.59;4953500;28;20798;-67